createdAt,value
2023-02-14T00:00:58.196Z,3.49
2023-02-14T00:03:25.305Z,3.49
2023-02-14T00:05:51.996Z,3.48
2023-02-14T00:08:18.750Z,3.48
2023-02-14T00:10:45.525Z,3.48
2023-02-14T00:13:12.223Z,3.48
2023-02-14T00:15:38.944Z,3.48
2023-02-14T00:18:06.473Z,3.47
2023-02-14T00:20:33.258Z,3.46
2023-02-14T00:23:01.025Z,3.46
2023-02-14T00:25:27.870Z,3.46
2023-02-14T00:27:55.768Z,3.44
2023-02-14T00:30:22.745Z,3.44
2023-02-14T00:32:49.466Z,3.44
2023-02-14T00:35:16.237Z,3.43
2023-02-14T00:37:43.105Z,3.43
2023-02-14T00:40:10.068Z,3.43
2023-02-14T00:42:36.782Z,3.43
2023-02-14T00:45:04.309Z,3.42
2023-02-14T00:47:31.086Z,3.42
2023-02-14T00:50:02.926Z,3.41
2023-02-14T00:52:31.279Z,3.41
2023-02-14T00:54:58.175Z,3.39
2023-02-14T00:57:24.965Z,3.38
2023-02-14T00:59:51.780Z,3.37
2023-02-14T01:02:18.510Z,3.36
2023-02-14T01:04:45.364Z,3.36
2023-02-14T01:07:12.198Z,3.36
2023-02-14T01:09:38.950Z,3.35
2023-02-14T01:12:05.860Z,3.34
2023-02-14T01:14:32.573Z,3.34
2023-02-14T01:16:59.286Z,3.33
2023-02-14T01:19:26.348Z,3.32
2023-02-14T01:21:53.085Z,3.32
2023-02-14T01:24:19.904Z,3.31
2023-02-14T01:26:46.679Z,3.30
2023-02-14T01:29:13.395Z,3.30
2023-02-14T01:31:40.489Z,3.29
2023-02-14T01:34:07.407Z,3.28
2023-02-14T01:36:38.375Z,3.28
2023-02-14T01:39:10.591Z,3.28
2023-02-14T01:41:39.696Z,3.27
2023-02-14T01:44:27.783Z,3.27
2023-02-14T01:46:56.560Z,3.26
2023-02-14T01:49:28.675Z,3.26
2023-02-14T01:52:15.049Z,3.25
2023-02-14T01:54:49.463Z,3.25
2023-02-14T01:57:20.234Z,3.23
2023-02-14T02:00:19.532Z,3.22
2023-02-14T02:02:46.789Z,3.22
2023-02-14T02:05:15.660Z,3.20
2023-02-14T02:07:42.661Z,3.19
2023-02-14T02:10:10.708Z,3.18
2023-02-14T02:12:38.360Z,3.17
2023-02-14T02:15:06.676Z,3.17
2023-02-14T02:17:56.242Z,3.16
2023-02-14T02:20:42.875Z,3.16
2023-02-14T02:23:32.474Z,3.14
2023-02-14T02:26:21.896Z,3.14
2023-02-14T02:28:54.397Z,3.13
2023-02-14T02:31:28.014Z,3.12
2023-02-14T02:34:12.320Z,3.11
2023-02-14T02:36:52.376Z,3.09
2023-02-14T02:39:24.845Z,3.09
2023-02-14T02:42:02.066Z,3.08
2023-02-14T02:44:31.821Z,3.07
2023-02-14T02:47:04.330Z,3.07
2023-02-14T02:49:56.110Z,3.06
2023-02-14T02:53:06.567Z,3.05
2023-02-14T02:55:54.248Z,3.05
2023-02-14T02:58:23.410Z,3.04
2023-02-14T03:00:53.479Z,3.03
2023-02-14T03:03:37.690Z,3.02
2023-02-14T03:06:04.941Z,3.02
2023-02-14T03:08:31.666Z,3.02
2023-02-14T03:10:59.769Z,3.03
2023-02-14T03:13:55.170Z,3.02
2023-02-14T03:16:34.839Z,3.01
2023-02-14T03:19:18.558Z,3.01
2023-02-14T03:22:00.248Z,3.01
2023-02-14T03:24:50.860Z,3.02
2023-02-14T03:27:23.375Z,3.01
2023-02-14T03:30:17.069Z,3.01
2023-02-14T03:33:00.550Z,3.01
2023-02-14T03:35:37.167Z,3.01
2023-02-14T03:38:24.155Z,3.00
2023-02-14T03:40:58.225Z,3.01
2023-02-14T03:43:31.256Z,3.00
2023-02-14T03:46:16.891Z,3.00
2023-02-14T03:48:46.106Z,3.00
2023-02-14T03:51:16.204Z,3.00
2023-02-14T03:53:49.979Z,3.00
2023-02-14T03:56:44.586Z,2.99
2023-02-14T03:59:16.997Z,2.99
2023-02-14T04:01:49.841Z,2.99
2023-02-14T04:04:21.345Z,3.00
2023-02-14T04:06:48.480Z,3.00
2023-02-14T04:09:15.202Z,3.00
2023-02-14T04:11:42.175Z,3.00
2023-02-14T04:14:08.861Z,3.00
2023-02-14T04:16:55.587Z,2.99
2023-02-14T04:19:25.041Z,2.99
2023-02-14T04:21:52.710Z,2.99
2023-02-14T04:24:20.583Z,2.99
2023-02-14T04:27:10.741Z,2.98
2023-02-14T04:29:49.599Z,2.98
2023-02-14T04:32:21.627Z,2.97
2023-02-14T04:34:49.357Z,2.98
2023-02-14T04:37:19.176Z,2.97
2023-02-14T04:39:46.117Z,2.98
2023-02-14T04:42:13.159Z,2.96
2023-02-14T04:44:39.935Z,2.95
2023-02-14T04:47:07.945Z,2.94
2023-02-14T04:49:35.634Z,2.93
2023-02-14T04:52:02.476Z,2.93
2023-02-14T04:54:29.430Z,2.93
2023-02-14T04:56:56.461Z,2.93
2023-02-14T04:59:24.989Z,2.92
2023-02-14T05:01:53.405Z,2.92
2023-02-14T05:04:20.711Z,2.92
2023-02-14T05:06:47.412Z,2.91
2023-02-14T05:09:14.173Z,2.91
2023-02-14T05:11:40.832Z,2.91
2023-02-14T05:14:07.617Z,2.91
2023-02-14T05:16:34.442Z,2.90
2023-02-14T05:19:01.160Z,2.91
2023-02-14T05:21:28.699Z,2.91
2023-02-14T05:23:55.467Z,2.91
2023-02-14T05:26:22.330Z,2.91
2023-02-14T05:28:49.025Z,2.90
2023-02-14T05:31:15.869Z,2.90
2023-02-14T05:33:42.688Z,2.89
2023-02-14T05:36:10.235Z,2.90
2023-02-14T05:38:37.019Z,2.89
2023-02-14T05:41:03.913Z,2.90
2023-02-14T05:43:30.950Z,2.90
2023-02-14T05:45:58.651Z,2.89
2023-02-14T05:48:25.673Z,2.90
2023-02-14T05:50:52.402Z,2.91
2023-02-14T05:53:19.323Z,2.90
2023-02-14T05:55:46.157Z,2.91
2023-02-14T05:58:12.907Z,2.91
2023-02-14T06:00:41.322Z,2.92
2023-02-14T06:03:09.204Z,2.93
2023-02-14T06:05:35.917Z,2.93
2023-02-14T06:08:02.621Z,2.94
2023-02-14T06:10:29.469Z,2.95
2023-02-14T06:12:56.484Z,2.97
2023-02-14T06:15:23.670Z,2.98
2023-02-14T06:17:57.690Z,3.00
2023-02-14T06:20:25.261Z,3.01
2023-02-14T06:22:53.897Z,3.02
2023-02-14T06:25:22.154Z,3.03
2023-02-14T06:27:49.428Z,3.04
2023-02-14T06:30:17.732Z,3.05
2023-02-14T06:32:45.608Z,3.07
2023-02-14T06:35:13.865Z,3.09
2023-02-14T06:37:42.224Z,3.09
2023-02-14T06:40:10.724Z,3.11
2023-02-14T06:42:38.409Z,3.12
2023-02-14T06:45:05.993Z,3.13
2023-02-14T06:47:34.965Z,3.15
2023-02-14T06:50:05.234Z,3.16
2023-02-14T06:52:33.371Z,3.18
2023-02-14T06:55:00.313Z,3.21
2023-02-14T06:57:27.259Z,3.24
2023-02-14T06:59:53.960Z,3.26
2023-02-14T07:02:24.354Z,3.26
2023-02-14T07:04:51.781Z,3.27
2023-02-14T07:07:18.576Z,3.27
2023-02-14T07:09:46.054Z,3.28
2023-02-14T07:12:12.910Z,3.29
2023-02-14T07:14:39.617Z,3.30
2023-02-14T07:17:07.181Z,3.30
2023-02-14T07:19:34.094Z,3.32
2023-02-14T07:22:01.124Z,3.34
2023-02-14T07:24:28.430Z,3.35
2023-02-14T07:26:55.280Z,3.37
2023-02-14T07:29:22.270Z,3.38
2023-02-14T07:31:49.415Z,3.40
2023-02-14T07:34:16.726Z,3.42
2023-02-14T07:36:44.726Z,3.44
2023-02-14T07:39:11.892Z,3.46
2023-02-14T07:41:38.859Z,3.48
2023-02-14T07:44:05.771Z,3.50
2023-02-14T07:46:32.804Z,3.53
2023-02-14T07:48:59.526Z,3.56
2023-02-14T07:51:26.298Z,3.58
2023-02-14T07:53:53.108Z,3.60
2023-02-14T07:56:20.516Z,3.63
2023-02-14T07:58:47.763Z,3.64
2023-02-14T08:01:14.783Z,3.67
2023-02-14T08:03:44.496Z,3.70
2023-02-14T08:06:11.415Z,3.74
2023-02-14T08:08:38.331Z,3.76
2023-02-14T08:11:05.207Z,3.80
2023-02-14T08:13:32.071Z,3.85
2023-02-14T08:16:04.922Z,3.91
2023-02-14T08:18:37.905Z,3.95
2023-02-14T08:21:07.272Z,3.99
2023-02-14T08:23:34.268Z,4.04
2023-02-14T08:26:01.325Z,4.09
2023-02-14T08:28:29.334Z,4.14
2023-02-14T08:30:56.322Z,4.19
2023-02-14T08:33:23.065Z,4.25
2023-02-14T08:35:52.298Z,4.28
2023-02-14T08:38:19.714Z,4.32
2023-02-14T08:40:46.738Z,4.35
2023-02-14T08:43:13.641Z,4.36
2023-02-14T08:45:40.568Z,4.38
2023-02-14T08:48:12.554Z,4.41
2023-02-14T08:50:39.979Z,4.45
2023-02-14T08:53:11.449Z,4.49
2023-02-14T08:55:39.346Z,4.52
2023-02-14T08:58:08.364Z,4.53
2023-02-14T09:00:35.581Z,4.55
2023-02-14T09:03:02.806Z,4.58
2023-02-14T09:05:32.034Z,4.63
2023-02-14T09:07:59.772Z,4.66
2023-02-14T09:10:28.442Z,4.70
2023-02-14T09:12:55.462Z,4.74
2023-02-14T09:15:22.320Z,4.77
2023-02-14T09:17:51.390Z,4.80
2023-02-14T09:20:18.530Z,4.84
2023-02-14T09:22:48.649Z,4.89
2023-02-14T09:25:16.148Z,4.92
2023-02-14T09:27:43.698Z,4.96
2023-02-14T09:30:11.222Z,5.02
2023-02-14T09:32:38.273Z,5.07
2023-02-14T09:35:19.201Z,5.11
2023-02-14T09:37:46.905Z,5.14
2023-02-14T09:40:18.066Z,5.18
2023-02-14T09:42:45.136Z,5.22
2023-02-14T09:45:22.318Z,5.27
2023-02-14T09:48:14.159Z,5.33
2023-02-14T09:50:49.118Z,5.41
2023-02-14T09:53:26.458Z,5.48
2023-02-14T09:56:05.565Z,5.55
2023-02-14T09:58:54.012Z,5.59
2023-02-14T10:01:30.106Z,5.62
2023-02-14T10:04:21.435Z,5.66
2023-02-14T10:07:08.825Z,5.71
2023-02-14T10:09:50.423Z,5.74
2023-02-14T10:12:29.075Z,5.77
2023-02-14T10:15:00.209Z,5.80
2023-02-14T10:17:36.110Z,5.81
2023-02-14T10:20:15.026Z,5.81
2023-02-14T10:23:25.762Z,5.78
2023-02-14T10:26:28.288Z,5.75
2023-02-14T10:28:56.306Z,5.73
2023-02-14T10:31:43.724Z,5.71
2023-02-14T10:34:27.339Z,5.68
2023-02-14T10:37:25.164Z,5.64
2023-02-14T10:40:12.004Z,5.60
2023-02-14T10:42:59.350Z,5.56
2023-02-14T10:45:42.928Z,5.53
2023-02-14T10:48:27.451Z,5.52
2023-02-14T10:51:16.769Z,5.51
2023-02-14T10:54:09.427Z,5.49
2023-02-14T10:56:41.947Z,5.45
2023-02-14T10:59:44.048Z,5.44
2023-02-14T11:02:16.194Z,5.44
2023-02-14T11:04:47.484Z,5.46
2023-02-14T11:07:20.072Z,5.46
2023-02-14T11:09:47.140Z,5.46
2023-02-14T11:12:37.851Z,5.47
2023-02-14T11:15:13.888Z,5.48
2023-02-14T11:17:42.499Z,5.49
2023-02-14T11:20:23.125Z,5.50
2023-02-14T11:22:50.685Z,5.52
2023-02-14T11:25:29.815Z,5.54
2023-02-14T11:28:05.525Z,5.57
2023-02-14T11:30:43.574Z,5.59
2023-02-14T11:33:22.809Z,5.60
2023-02-14T11:35:53.691Z,5.60
2023-02-14T11:38:36.018Z,5.60
2023-02-14T11:41:04.973Z,5.62
2023-02-14T11:43:37.672Z,5.65
2023-02-14T11:46:17.244Z,5.68
2023-02-14T11:49:02.496Z,5.68
2023-02-14T11:51:36.076Z,5.68
2023-02-14T11:54:06.302Z,5.69
2023-02-14T11:56:48.209Z,5.67
2023-02-14T11:59:29.148Z,5.65
2023-02-14T12:01:59.229Z,5.63
2023-02-14T12:04:46.195Z,5.62
2023-02-14T12:07:19.735Z,5.62
2023-02-14T12:09:48.695Z,5.64
2023-02-14T12:12:23.327Z,5.68
2023-02-14T12:14:50.489Z,5.72
2023-02-14T12:17:39.469Z,5.73
2023-02-14T12:20:17.025Z,5.74
2023-02-14T12:22:54.078Z,5.74
2023-02-14T12:25:26.107Z,5.75
2023-02-14T12:28:01.427Z,5.78
2023-02-14T12:30:32.705Z,5.83
2023-02-14T12:33:00.404Z,5.87
2023-02-14T12:35:53.256Z,5.90
2023-02-14T12:38:48.607Z,5.91
2023-02-14T12:41:44.819Z,5.90
2023-02-14T12:44:17.984Z,5.90
2023-02-14T12:46:58.621Z,5.89
2023-02-14T12:49:49.768Z,5.89
2023-02-14T12:52:45.045Z,5.91
2023-02-14T12:55:25.571Z,5.93
2023-02-14T12:58:32.690Z,5.97
2023-02-14T13:01:28.790Z,5.96
2023-02-14T13:04:31.494Z,5.97
2023-02-14T13:07:07.307Z,5.98
2023-02-14T13:10:03.293Z,5.98
2023-02-14T13:12:49.547Z,5.97
2023-02-14T13:15:44.100Z,5.94
2023-02-14T13:18:41.028Z,5.92
2023-02-14T13:21:12.091Z,5.87
2023-02-14T13:23:48.935Z,5.84
2023-02-14T13:26:31.285Z,5.83
2023-02-14T13:29:13.776Z,5.80
2023-02-14T13:31:41.707Z,5.80
2023-02-14T13:34:15.768Z,5.81
2023-02-14T13:36:44.358Z,5.85
2023-02-14T13:39:25.649Z,5.87
2023-02-14T13:41:52.627Z,5.90
2023-02-14T13:44:45.507Z,5.93
2023-02-14T13:47:23.345Z,5.93
2023-02-14T13:50:05.655Z,5.93
2023-02-14T13:53:02.387Z,5.92
2023-02-14T13:55:35.998Z,5.91
2023-02-14T13:58:06.243Z,5.91
2023-02-14T14:00:47.046Z,5.91
2023-02-14T14:03:37.479Z,5.89
2023-02-14T14:06:10.960Z,5.84
2023-02-14T14:08:47.467Z,5.78
2023-02-14T14:11:28.363Z,5.75
2023-02-14T14:13:58.220Z,5.71
2023-02-14T14:16:27.760Z,5.67
2023-02-14T14:18:59.962Z,5.62
2023-02-14T14:21:37.697Z,5.59
2023-02-14T14:24:44.735Z,5.58
2023-02-14T14:27:31.606Z,5.57
2023-02-14T14:30:01.595Z,5.58
2023-02-14T14:32:36.624Z,5.58
2023-02-14T14:35:18.260Z,5.58
2023-02-14T14:37:51.239Z,5.60
2023-02-14T14:40:28.939Z,5.60
2023-02-14T14:43:24.753Z,5.60
2023-02-14T14:45:53.571Z,5.60
2023-02-14T14:48:30.396Z,5.58
2023-02-14T14:50:58.326Z,5.56
2023-02-14T14:53:42.112Z,5.54
2023-02-14T14:56:33.713Z,5.52
2023-02-14T14:59:23.683Z,5.50
2023-02-14T15:01:51.542Z,5.49
2023-02-14T15:04:38.796Z,5.46
2023-02-14T15:07:21.265Z,5.42
2023-02-14T15:09:48.168Z,5.37
2023-02-14T15:12:34.548Z,5.33
2023-02-14T15:15:01.563Z,5.30
2023-02-14T15:17:31.673Z,5.29
2023-02-14T15:20:08.177Z,5.28
2023-02-14T15:22:42.044Z,5.26
2023-02-14T15:25:14.128Z,5.25
2023-02-14T15:27:42.051Z,5.21
2023-02-14T15:30:30.981Z,5.19
2023-02-14T15:32:58.471Z,5.15
2023-02-14T15:35:31.810Z,5.12
2023-02-14T15:38:03.032Z,5.07
2023-02-14T15:40:33.081Z,5.03
2023-02-14T15:43:19.772Z,4.99
2023-02-14T15:45:51.490Z,4.95
2023-02-14T15:48:25.301Z,4.92
2023-02-14T15:50:55.218Z,4.88
2023-02-14T15:53:30.017Z,4.85
2023-02-14T15:56:25.796Z,4.84
2023-02-14T15:59:08.577Z,4.82
2023-02-14T16:01:37.166Z,4.81
2023-02-14T16:04:06.684Z,4.81
2023-02-14T16:06:44.919Z,4.80
2023-02-14T16:09:34.397Z,4.79
2023-02-14T16:12:23.951Z,4.77
2023-02-14T16:15:11.101Z,4.75
2023-02-14T16:17:38.015Z,4.73
2023-02-14T16:20:21.568Z,4.71
2023-02-14T16:22:49.181Z,4.67
2023-02-14T16:25:17.071Z,4.64
2023-02-14T16:27:44.107Z,4.61
2023-02-14T16:30:18.674Z,4.58
2023-02-14T16:32:54.208Z,4.54
2023-02-14T16:35:21.962Z,4.52
2023-02-14T16:37:52.749Z,4.49
2023-02-14T16:40:24.199Z,4.49
2023-02-14T16:42:51.519Z,4.47
2023-02-14T16:45:19.559Z,4.47
2023-02-14T16:47:47.622Z,4.46
2023-02-14T16:50:15.285Z,4.47
2023-02-14T16:52:43.462Z,4.47
2023-02-14T16:55:20.132Z,4.47
2023-02-14T16:57:53.274Z,4.47
2023-02-14T17:00:21.568Z,4.47
2023-02-14T17:02:48.530Z,4.46
2023-02-14T17:05:15.345Z,4.44
2023-02-14T17:07:43.931Z,4.43
2023-02-14T17:10:17.628Z,4.41
2023-02-14T17:12:47.427Z,4.38
2023-02-14T17:15:16.997Z,4.35
2023-02-14T17:17:44.765Z,4.32
2023-02-14T17:20:14.139Z,4.29
2023-02-14T17:22:42.720Z,4.26
2023-02-14T17:25:09.729Z,4.24
2023-02-14T17:27:36.990Z,4.22
2023-02-14T17:30:04.830Z,4.21
2023-02-14T17:32:31.775Z,4.20
2023-02-14T17:35:09.072Z,4.21
2023-02-14T17:37:36.963Z,4.20
2023-02-14T17:40:06.181Z,4.21
2023-02-14T17:42:34.341Z,4.21
2023-02-14T17:45:01.593Z,4.22
2023-02-14T17:47:31.091Z,4.22
2023-02-14T17:49:58.313Z,4.23
2023-02-14T17:52:26.288Z,4.22
2023-02-14T17:54:53.504Z,4.22
2023-02-14T17:57:21.040Z,4.23
2023-02-14T17:59:47.888Z,4.23
2023-02-14T18:02:15.360Z,4.22
2023-02-14T18:04:42.254Z,4.22
2023-02-14T18:07:09.121Z,4.21
2023-02-14T18:09:36.112Z,4.19
2023-02-14T18:12:03.177Z,4.18
2023-02-14T18:14:31.506Z,4.16
2023-02-14T18:16:58.368Z,4.14
2023-02-14T18:19:25.099Z,4.12
2023-02-14T18:21:51.859Z,4.10
2023-02-14T18:24:18.593Z,4.08
2023-02-14T18:26:45.888Z,4.06
2023-02-14T18:29:13.440Z,4.04
2023-02-14T18:31:42.845Z,4.01
2023-02-14T18:34:09.715Z,4.00
2023-02-14T18:36:38.686Z,4.00
2023-02-14T18:39:06.707Z,3.99
2023-02-14T18:41:33.713Z,3.98
2023-02-14T18:44:02.634Z,3.98
2023-02-14T18:46:33.207Z,3.97
2023-02-14T18:49:00.000Z,3.97
2023-02-14T18:51:30.184Z,3.96
2023-02-14T18:53:58.660Z,3.97
2023-02-14T18:56:29.110Z,3.97
2023-02-14T18:59:01.416Z,3.96
2023-02-14T19:01:34.065Z,3.94
2023-02-14T19:04:01.318Z,3.93
2023-02-14T19:06:30.637Z,3.91
2023-02-14T19:08:58.096Z,3.89
2023-02-14T19:11:28.460Z,3.87
2023-02-14T19:13:57.606Z,3.86
2023-02-14T19:16:27.551Z,3.86
2023-02-14T19:18:54.587Z,3.85
2023-02-14T19:21:24.669Z,3.85
2023-02-14T19:23:53.436Z,3.85
2023-02-14T19:26:23.129Z,3.85
2023-02-14T19:28:55.081Z,3.84
2023-02-14T19:31:22.563Z,3.83
2023-02-14T19:33:49.475Z,3.82
2023-02-14T19:36:19.256Z,3.80
2023-02-14T19:38:49.376Z,3.77
2023-02-14T19:41:19.315Z,3.76
2023-02-14T19:43:46.520Z,3.73
2023-02-14T19:46:14.578Z,3.72
2023-02-14T19:48:41.822Z,3.70
2023-02-14T19:51:13.989Z,3.70
2023-02-14T19:53:40.751Z,3.70
2023-02-14T19:56:07.458Z,3.70
2023-02-14T19:58:34.334Z,3.71
2023-02-14T20:01:01.722Z,3.71
2023-02-14T20:03:29.251Z,3.70
2023-02-14T20:05:55.943Z,3.70
2023-02-14T20:08:22.930Z,3.70
2023-02-14T20:10:49.850Z,3.69
2023-02-14T20:13:16.736Z,3.68
2023-02-14T20:15:45.717Z,3.67
2023-02-14T20:18:12.631Z,3.66
2023-02-14T20:21:01.122Z,3.64
2023-02-14T20:23:28.147Z,3.62
2023-02-14T20:25:54.853Z,3.61
2023-02-14T20:28:21.608Z,3.59
2023-02-14T20:30:48.384Z,3.57
2023-02-14T20:33:15.168Z,3.55
2023-02-14T20:35:42.353Z,3.54
2023-02-14T20:38:09.346Z,3.53
2023-02-14T20:40:40.472Z,3.52
2023-02-14T20:43:07.345Z,3.52
2023-02-14T20:45:34.311Z,3.52
2023-02-14T20:48:04.423Z,3.51
2023-02-14T20:50:31.775Z,3.51
2023-02-14T20:53:07.559Z,3.50
2023-02-14T20:55:34.327Z,3.49
2023-02-14T20:58:02.526Z,3.48
2023-02-14T21:00:30.233Z,3.46
2023-02-14T21:02:58.566Z,3.45
2023-02-14T21:05:25.549Z,3.45
2023-02-14T21:07:52.550Z,3.45
2023-02-14T21:10:19.284Z,3.44
2023-02-14T21:12:46.073Z,3.43
2023-02-14T21:15:12.810Z,3.42
2023-02-14T21:17:39.602Z,3.41
2023-02-14T21:20:07.241Z,3.41
2023-02-14T21:22:33.928Z,3.40
2023-02-14T21:25:00.846Z,3.39
2023-02-14T21:27:27.707Z,3.37
2023-02-14T21:29:54.562Z,3.36
2023-02-14T21:32:21.597Z,3.36
2023-02-14T21:34:48.783Z,3.34
2023-02-14T21:37:15.831Z,3.33
2023-02-14T21:39:42.780Z,3.31
2023-02-14T21:42:11.770Z,3.30
2023-02-14T21:44:52.576Z,3.28
2023-02-14T21:47:19.459Z,3.26
2023-02-14T21:50:00.206Z,3.25
2023-02-14T21:52:26.998Z,3.24
2023-02-14T21:54:53.698Z,3.23
2023-02-14T21:57:20.491Z,3.22
2023-02-14T21:59:47.275Z,3.20
2023-02-14T22:02:13.980Z,3.19
2023-02-14T22:04:43.340Z,3.18
2023-02-14T22:07:10.149Z,3.17
2023-02-14T22:09:36.992Z,3.15
2023-02-14T22:12:04.059Z,3.14
2023-02-14T22:14:30.740Z,3.13
2023-02-14T22:16:57.508Z,3.12
2023-02-14T22:19:24.331Z,3.10
2023-02-14T22:21:51.067Z,3.09
2023-02-14T22:24:17.753Z,3.08
2023-02-14T22:26:45.131Z,3.07
2023-02-14T22:29:12.999Z,3.06
2023-02-14T22:31:42.584Z,3.04
2023-02-14T22:34:11.405Z,3.03
2023-02-14T22:36:38.531Z,3.01
2023-02-14T22:39:06.250Z,3.01
2023-02-14T22:41:37.732Z,3.01
2023-02-14T22:44:04.977Z,2.99
2023-02-14T22:46:31.749Z,2.98
2023-02-14T22:48:59.525Z,2.96
2023-02-14T22:51:29.306Z,2.96
2023-02-14T22:53:58.518Z,2.96
2023-02-14T22:56:31.891Z,2.96
2023-02-14T22:59:01.178Z,2.94
2023-02-14T23:01:28.655Z,2.92
2023-02-14T23:03:57.645Z,2.91
2023-02-14T23:06:26.882Z,2.92
2023-02-14T23:08:54.909Z,2.90
2023-02-14T23:11:24.407Z,2.90
2023-02-14T23:14:05.592Z,2.89
2023-02-14T23:16:46.581Z,2.88
2023-02-14T23:19:29.715Z,2.86
2023-02-14T23:21:56.958Z,2.83
2023-02-14T23:24:24.359Z,2.81
2023-02-14T23:26:51.522Z,2.81
2023-02-14T23:29:18.288Z,2.81
2023-02-14T23:31:45.166Z,2.81
2023-02-14T23:34:11.946Z,2.80
2023-02-14T23:36:39.163Z,2.79
2023-02-14T23:39:06.349Z,2.80
2023-02-14T23:41:47.058Z,2.81
2023-02-14T23:44:28.276Z,2.81
2023-02-14T23:46:57.681Z,2.81
2023-02-14T23:49:25.490Z,2.81
2023-02-14T23:51:53.755Z,2.81
2023-02-14T23:54:21.661Z,2.82
2023-02-14T23:56:49.202Z,2.80
2023-02-14T23:59:16.935Z,2.78
